sensor_id;sensor_type;location;lat;lon;timestamp;P1;durP1;ratioP1;P2;durP2;ratioP2
14923;SDS011;7554;43.600;1.480;2023-03-14T00:01:07;7.43;;;1.10;;
14923;SDS011;7554;43.600;1.480;2023-03-14T00:03:37;8.13;;;1.60;;
14923;SDS011;7554;43.600;1.480;2023-03-14T00:06:05;6.47;;;1.40;;
14923;SDS011;7554;43.600;1.480;2023-03-14T00:08:33;6.90;;;1.50;;
14923;SDS011;7554;43.600;1.480;2023-03-14T00:11:04;7.10;;;1.93;;
14923;SDS011;7554;43.600;1.480;2023-03-14T00:13:32;4.90;;;1.27;;
14923;SDS011;7554;43.600;1.480;2023-03-14T00:16:03;7.87;;;1.10;;
14923;SDS011;7554;43.600;1.480;2023-03-14T00:18:31;5.87;;;1.73;;
14923;SDS011;7554;43.600;1.480;2023-03-14T00:21:01;7.57;;;1.30;;
14923;SDS011;7554;43.600;1.480;2023-03-14T00:23:30;5.63;;;1.23;;
14923;SDS011;7554;43.600;1.480;2023-03-14T00:25:59;4.40;;;1.13;;
14923;SDS011;7554;43.600;1.480;2023-03-14T00:28:26;4.30;;;1.03;;
14923;SDS011;7554;43.600;1.480;2023-03-14T00:30:54;7.53;;;1.80;;
14923;SDS011;7554;43.600;1.480;2023-03-14T00:33:22;4.23;;;1.23;;
14923;SDS011;7554;43.600;1.480;2023-03-14T00:35:53;4.97;;;1.10;;
14923;SDS011;7554;43.600;1.480;2023-03-14T00:38:23;7.73;;;1.73;;
14923;SDS011;7554;43.600;1.480;2023-03-14T00:40:51;13.83;;;2.37;;
14923;SDS011;7554;43.600;1.480;2023-03-14T00:43:19;8.73;;;1.47;;
14923;SDS011;7554;43.600;1.480;2023-03-14T00:45:48;7.83;;;1.37;;
14923;SDS011;7554;43.600;1.480;2023-03-14T00:48:15;5.83;;;1.50;;
14923;SDS011;7554;43.600;1.480;2023-03-14T00:50:43;6.27;;;1.20;;
14923;SDS011;7554;43.600;1.480;2023-03-14T00:53:11;4.83;;;1.03;;
14923;SDS011;7554;43.600;1.480;2023-03-14T00:55:40;5.73;;;1.53;;
14923;SDS011;7554;43.600;1.480;2023-03-14T00:58:09;6.77;;;1.30;;
14923;SDS011;7554;43.600;1.480;2023-03-14T01:00:37;4.70;;;1.53;;
14923;SDS011;7554;43.600;1.480;2023-03-14T01:03:05;5.87;;;1.20;;
14923;SDS011;7554;43.600;1.480;2023-03-14T01:05:33;6.13;;;1.57;;
14923;SDS011;7554;43.600;1.480;2023-03-14T01:08:01;4.50;;;1.17;;
14923;SDS011;7554;43.600;1.480;2023-03-14T01:10:28;5.67;;;1.70;;
14923;SDS011;7554;43.600;1.480;2023-03-14T01:12:57;8.07;;;1.37;;
14923;SDS011;7554;43.600;1.480;2023-03-14T01:15:24;11.83;;;2.43;;
14923;SDS011;7554;43.600;1.480;2023-03-14T01:17:52;5.63;;;1.13;;
14923;SDS011;7554;43.600;1.480;2023-03-14T01:20:19;11.80;;;2.23;;
14923;SDS011;7554;43.600;1.480;2023-03-14T01:22:46;3.90;;;1.00;;
14923;SDS011;7554;43.600;1.480;2023-03-14T01:25:14;7.33;;;1.30;;
14923;SDS011;7554;43.600;1.480;2023-03-14T01:27:43;9.43;;;1.20;;
14923;SDS011;7554;43.600;1.480;2023-03-14T01:30:12;6.07;;;1.87;;
14923;SDS011;7554;43.600;1.480;2023-03-14T01:32:40;4.10;;;1.07;;
14923;SDS011;7554;43.600;1.480;2023-03-14T01:35:07;5.43;;;1.20;;
14923;SDS011;7554;43.600;1.480;2023-03-14T01:37:35;6.73;;;1.40;;
14923;SDS011;7554;43.600;1.480;2023-03-14T01:40:02;5.77;;;1.30;;
14923;SDS011;7554;43.600;1.480;2023-03-14T01:42:31;5.93;;;1.53;;
14923;SDS011;7554;43.600;1.480;2023-03-14T01:44:59;11.33;;;1.90;;
14923;SDS011;7554;43.600;1.480;2023-03-14T01:47:29;7.43;;;1.53;;
14923;SDS011;7554;43.600;1.480;2023-03-14T01:49:58;7.17;;;1.30;;
14923;SDS011;7554;43.600;1.480;2023-03-14T01:52:29;10.63;;;1.70;;
14923;SDS011;7554;43.600;1.480;2023-03-14T01:55:02;9.90;;;1.37;;
14923;SDS011;7554;43.600;1.480;2023-03-14T01:57:32;13.33;;;1.90;;
14923;SDS011;7554;43.600;1.480;2023-03-14T02:00:03;7.70;;;1.60;;
14923;SDS011;7554;43.600;1.480;2023-03-14T02:02:38;6.07;;;1.30;;
14923;SDS011;7554;43.600;1.480;2023-03-14T02:05:08;10.93;;;2.13;;
14923;SDS011;7554;43.600;1.480;2023-03-14T02:07:37;11.60;;;2.23;;
14923;SDS011;7554;43.600;1.480;2023-03-14T02:10:10;10.60;;;2.07;;
14923;SDS011;7554;43.600;1.480;2023-03-14T02:12:37;9.27;;;1.67;;
14923;SDS011;7554;43.600;1.480;2023-03-14T02:15:06;14.27;;;2.00;;
14923;SDS011;7554;43.600;1.480;2023-03-14T02:17:34;12.53;;;1.87;;
14923;SDS011;7554;43.600;1.480;2023-03-14T02:20:13;11.80;;;2.10;;
14923;SDS011;7554;43.600;1.480;2023-03-14T02:22:51;6.60;;;1.67;;
14923;SDS011;7554;43.600;1.480;2023-03-14T02:25:20;15.00;;;2.07;;
14923;SDS011;7554;43.600;1.480;2023-03-14T02:27:55;15.97;;;2.60;;
14923;SDS011;7554;43.600;1.480;2023-03-14T02:30:24;11.37;;;2.40;;
14923;SDS011;7554;43.600;1.480;2023-03-14T02:32:54;13.50;;;2.07;;
14923;SDS011;7554;43.600;1.480;2023-03-14T02:35:26;13.47;;;2.27;;
14923;SDS011;7554;43.600;1.480;2023-03-14T02:37:56;10.63;;;2.30;;
14923;SDS011;7554;43.600;1.480;2023-03-14T02:40:30;8.10;;;2.27;;
14923;SDS011;7554;43.600;1.480;2023-03-14T02:42:58;9.67;;;2.10;;
14923;SDS011;7554;43.600;1.480;2023-03-14T02:45:32;11.40;;;2.03;;
14923;SDS011;7554;43.600;1.480;2023-03-14T02:48:14;8.63;;;2.00;;
14923;SDS011;7554;43.600;1.480;2023-03-14T02:50:45;12.30;;;2.40;;
14923;SDS011;7554;43.600;1.480;2023-03-14T02:53:14;13.57;;;1.77;;
14923;SDS011;7554;43.600;1.480;2023-03-14T02:55:45;9.30;;;1.93;;
14923;SDS011;7554;43.600;1.480;2023-03-14T02:58:15;8.63;;;2.13;;
14923;SDS011;7554;43.600;1.480;2023-03-14T03:00:42;12.33;;;1.23;;
14923;SDS011;7554;43.600;1.480;2023-03-14T03:03:10;8.47;;;1.60;;
14923;SDS011;7554;43.600;1.480;2023-03-14T03:05:37;12.23;;;1.70;;
14923;SDS011;7554;43.600;1.480;2023-03-14T03:08:05;9.90;;;1.97;;
14923;SDS011;7554;43.600;1.480;2023-03-14T03:10:32;10.30;;;1.70;;
14923;SDS011;7554;43.600;1.480;2023-03-14T03:13:00;10.37;;;1.87;;
14923;SDS011;7554;43.600;1.480;2023-03-14T03:15:29;8.93;;;1.83;;
14923;SDS011;7554;43.600;1.480;2023-03-14T03:17:56;9.90;;;1.80;;
14923;SDS011;7554;43.600;1.480;2023-03-14T03:20:23;9.77;;;1.60;;
14923;SDS011;7554;43.600;1.480;2023-03-14T03:22:51;8.93;;;1.40;;
14923;SDS011;7554;43.600;1.480;2023-03-14T03:25:18;6.27;;;1.30;;
14923;SDS011;7554;43.600;1.480;2023-03-14T03:27:45;10.40;;;2.30;;
14923;SDS011;7554;43.600;1.480;2023-03-14T03:30:13;9.67;;;2.37;;
14923;SDS011;7554;43.600;1.480;2023-03-14T03:32:42;8.20;;;2.10;;
14923;SDS011;7554;43.600;1.480;2023-03-14T03:35:10;5.47;;;1.60;;
14923;SDS011;7554;43.600;1.480;2023-03-14T03:37:37;5.77;;;1.63;;
14923;SDS011;7554;43.600;1.480;2023-03-14T03:40:05;8.23;;;1.67;;
14923;SDS011;7554;43.600;1.480;2023-03-14T03:42:34;10.87;;;2.50;;
14923;SDS011;7554;43.600;1.480;2023-03-14T03:45:02;10.83;;;2.00;;
14923;SDS011;7554;43.600;1.480;2023-03-14T03:47:30;11.43;;;1.80;;
14923;SDS011;7554;43.600;1.480;2023-03-14T03:49:59;9.43;;;2.13;;
14923;SDS011;7554;43.600;1.480;2023-03-14T03:52:26;10.63;;;2.10;;
14923;SDS011;7554;43.600;1.480;2023-03-14T03:54:53;8.57;;;1.67;;
14923;SDS011;7554;43.600;1.480;2023-03-14T03:57:21;11.47;;;1.77;;
14923;SDS011;7554;43.600;1.480;2023-03-14T03:59:48;10.70;;;1.83;;
14923;SDS011;7554;43.600;1.480;2023-03-14T04:02:15;10.80;;;1.70;;
14923;SDS011;7554;43.600;1.480;2023-03-14T04:04:43;5.80;;;1.27;;
14923;SDS011;7554;43.600;1.480;2023-03-14T04:07:11;9.60;;;1.60;;
14923;SDS011;7554;43.600;1.480;2023-03-14T04:09:40;9.40;;;1.93;;
14923;SDS011;7554;43.600;1.480;2023-03-14T04:12:07;11.53;;;2.07;;
14923;SDS011;7554;43.600;1.480;2023-03-14T04:14:36;8.03;;;1.97;;
14923;SDS011;7554;43.600;1.480;2023-03-14T04:17:03;9.77;;;2.13;;
14923;SDS011;7554;43.600;1.480;2023-03-14T04:19:30;9.90;;;1.83;;
14923;SDS011;7554;43.600;1.480;2023-03-14T04:21:58;10.33;;;1.70;;
14923;SDS011;7554;43.600;1.480;2023-03-14T04:24:26;12.83;;;1.80;;
14923;SDS011;7554;43.600;1.480;2023-03-14T04:26:54;12.60;;;2.40;;
14923;SDS011;7554;43.600;1.480;2023-03-14T04:29:21;10.53;;;1.90;;
14923;SDS011;7554;43.600;1.480;2023-03-14T04:31:49;11.67;;;2.03;;
14923;SDS011;7554;43.600;1.480;2023-03-14T04:34:16;12.10;;;2.00;;
14923;SDS011;7554;43.600;1.480;2023-03-14T04:36:43;12.00;;;1.83;;
14923;SDS011;7554;43.600;1.480;2023-03-14T04:39:11;8.23;;;1.70;;
14923;SDS011;7554;43.600;1.480;2023-03-14T04:41:40;12.03;;;2.30;;
14923;SDS011;7554;43.600;1.480;2023-03-14T04:44:07;7.97;;;1.83;;
14923;SDS011;7554;43.600;1.480;2023-03-14T04:46:35;11.73;;;2.10;;
14923;SDS011;7554;43.600;1.480;2023-03-14T04:49:02;10.93;;;2.33;;
14923;SDS011;7554;43.600;1.480;2023-03-14T04:51:29;9.97;;;2.10;;
14923;SDS011;7554;43.600;1.480;2023-03-14T04:53:56;10.23;;;2.13;;
14923;SDS011;7554;43.600;1.480;2023-03-14T04:56:24;11.17;;;2.50;;
14923;SDS011;7554;43.600;1.480;2023-03-14T04:58:54;13.47;;;2.20;;
14923;SDS011;7554;43.600;1.480;2023-03-14T05:01:21;12.67;;;2.00;;
14923;SDS011;7554;43.600;1.480;2023-03-14T05:03:48;10.83;;;1.80;;
14923;SDS011;7554;43.600;1.480;2023-03-14T05:06:16;7.80;;;1.77;;
14923;SDS011;7554;43.600;1.480;2023-03-14T05:08:43;10.90;;;1.93;;
14923;SDS011;7554;43.600;1.480;2023-03-14T05:11:10;10.27;;;2.57;;
14923;SDS011;7554;43.600;1.480;2023-03-14T05:13:38;12.27;;;2.87;;
14923;SDS011;7554;43.600;1.480;2023-03-14T05:16:08;9.53;;;2.03;;
14923;SDS011;7554;43.600;1.480;2023-03-14T05:18:37;10.87;;;2.40;;
14923;SDS011;7554;43.600;1.480;2023-03-14T05:21:04;12.70;;;2.43;;
14923;SDS011;7554;43.600;1.480;2023-03-14T05:23:32;22.03;;;2.90;;
14923;SDS011;7554;43.600;1.480;2023-03-14T05:25:59;11.60;;;2.63;;
14923;SDS011;7554;43.600;1.480;2023-03-14T05:28:27;13.77;;;2.90;;
14923;SDS011;7554;43.600;1.480;2023-03-14T05:30:54;12.40;;;2.63;;
14923;SDS011;7554;43.600;1.480;2023-03-14T05:33:23;13.07;;;2.67;;
14923;SDS011;7554;43.600;1.480;2023-03-14T05:35:50;14.27;;;2.57;;
14923;SDS011;7554;43.600;1.480;2023-03-14T05:38:18;13.50;;;2.50;;
14923;SDS011;7554;43.600;1.480;2023-03-14T05:40:45;15.43;;;2.87;;
14923;SDS011;7554;43.600;1.480;2023-03-14T05:43:12;12.13;;;3.47;;
14923;SDS011;7554;43.600;1.480;2023-03-14T05:45:41;13.30;;;2.70;;
14923;SDS011;7554;43.600;1.480;2023-03-14T05:48:09;12.03;;;2.90;;
14923;SDS011;7554;43.600;1.480;2023-03-14T05:50:38;14.70;;;2.53;;
14923;SDS011;7554;43.600;1.480;2023-03-14T05:53:05;13.63;;;2.60;;
14923;SDS011;7554;43.600;1.480;2023-03-14T05:55:32;11.10;;;3.23;;
14923;SDS011;7554;43.600;1.480;2023-03-14T05:58:00;11.40;;;2.90;;
14923;SDS011;7554;43.600;1.480;2023-03-14T06:00:27;13.70;;;2.40;;
14923;SDS011;7554;43.600;1.480;2023-03-14T06:02:54;12.13;;;2.60;;
14923;SDS011;7554;43.600;1.480;2023-03-14T06:05:22;13.40;;;2.73;;
14923;SDS011;7554;43.600;1.480;2023-03-14T06:07:50;15.27;;;3.00;;
14923;SDS011;7554;43.600;1.480;2023-03-14T06:10:18;15.03;;;2.97;;
14923;SDS011;7554;43.600;1.480;2023-03-14T06:12:45;13.70;;;2.63;;
14923;SDS011;7554;43.600;1.480;2023-03-14T06:15:12;14.53;;;2.87;;
14923;SDS011;7554;43.600;1.480;2023-03-14T06:17:40;13.77;;;2.63;;
14923;SDS011;7554;43.600;1.480;2023-03-14T06:20:08;18.70;;;2.73;;
14923;SDS011;7554;43.600;1.480;2023-03-14T06:22:36;15.83;;;3.03;;
14923;SDS011;7554;43.600;1.480;2023-03-14T06:25:06;16.47;;;3.03;;
14923;SDS011;7554;43.600;1.480;2023-03-14T06:27:35;16.00;;;3.10;;
14923;SDS011;7554;43.600;1.480;2023-03-14T06:30:03;15.40;;;2.53;;
14923;SDS011;7554;43.600;1.480;2023-03-14T06:32:31;16.73;;;2.70;;
14923;SDS011;7554;43.600;1.480;2023-03-14T06:34:58;11.63;;;2.63;;
14923;SDS011;7554;43.600;1.480;2023-03-14T06:37:26;18.07;;;2.77;;
14923;SDS011;7554;43.600;1.480;2023-03-14T06:39:54;16.67;;;3.13;;
14923;SDS011;7554;43.600;1.480;2023-03-14T06:42:23;14.70;;;2.57;;
14923;SDS011;7554;43.600;1.480;2023-03-14T06:44:50;19.13;;;3.00;;
14923;SDS011;7554;43.600;1.480;2023-03-14T06:47:17;16.93;;;2.63;;
14923;SDS011;7554;43.600;1.480;2023-03-14T06:49:44;16.20;;;3.30;;
14923;SDS011;7554;43.600;1.480;2023-03-14T06:52:12;17.73;;;3.17;;
14923;SDS011;7554;43.600;1.480;2023-03-14T06:54:39;19.73;;;3.10;;
14923;SDS011;7554;43.600;1.480;2023-03-14T06:57:07;16.20;;;2.77;;
14923;SDS011;7554;43.600;1.480;2023-03-14T06:59:36;15.40;;;3.53;;
14923;SDS011;7554;43.600;1.480;2023-03-14T07:02:03;19.67;;;3.60;;
14923;SDS011;7554;43.600;1.480;2023-03-14T07:04:30;20.47;;;3.47;;
14923;SDS011;7554;43.600;1.480;2023-03-14T07:06:58;16.53;;;3.03;;
14923;SDS011;7554;43.600;1.480;2023-03-14T07:09:25;23.40;;;3.97;;
14923;SDS011;7554;43.600;1.480;2023-03-14T07:11:52;19.47;;;2.93;;
14923;SDS011;7554;43.600;1.480;2023-03-14T07:14:20;17.10;;;2.53;;
14923;SDS011;7554;43.600;1.480;2023-03-14T07:16:48;28.27;;;3.23;;
14923;SDS011;7554;43.600;1.480;2023-03-14T07:19:16;25.77;;;3.23;;
14923;SDS011;7554;43.600;1.480;2023-03-14T07:21:43;20.87;;;3.57;;
14923;SDS011;7554;43.600;1.480;2023-03-14T07:24:10;29.93;;;4.00;;
14923;SDS011;7554;43.600;1.480;2023-03-14T07:26:38;36.33;;;4.30;;
14923;SDS011;7554;43.600;1.480;2023-03-14T07:29:05;28.63;;;4.63;;
14923;SDS011;7554;43.600;1.480;2023-03-14T07:31:32;38.97;;;4.63;;
14923;SDS011;7554;43.600;1.480;2023-03-14T07:34:01;35.77;;;4.30;;
14923;SDS011;7554;43.600;1.480;2023-03-14T07:36:28;34.67;;;4.73;;
14923;SDS011;7554;43.600;1.480;2023-03-14T07:38:56;33.10;;;5.40;;
14923;SDS011;7554;43.600;1.480;2023-03-14T07:41:24;38.67;;;4.07;;
14923;SDS011;7554;43.600;1.480;2023-03-14T07:43:51;41.67;;;4.07;;
14923;SDS011;7554;43.600;1.480;2023-03-14T07:46:19;40.93;;;5.03;;
14923;SDS011;7554;43.600;1.480;2023-03-14T07:48:46;42.13;;;4.73;;
14923;SDS011;7554;43.600;1.480;2023-03-14T07:51:15;34.83;;;4.87;;
14923;SDS011;7554;43.600;1.480;2023-03-14T07:53:42;37.97;;;4.67;;
14923;SDS011;7554;43.600;1.480;2023-03-14T07:56:10;37.20;;;5.30;;
14923;SDS011;7554;43.600;1.480;2023-03-14T07:58:38;38.77;;;5.80;;
14923;SDS011;7554;43.600;1.480;2023-03-14T08:01:05;47.87;;;5.97;;
14923;SDS011;7554;43.600;1.480;2023-03-14T08:03:33;37.03;;;4.50;;
14923;SDS011;7554;43.600;1.480;2023-03-14T08:06:00;27.00;;;4.87;;
14923;SDS011;7554;43.600;1.480;2023-03-14T08:08:29;34.63;;;6.20;;
14923;SDS011;7554;43.600;1.480;2023-03-14T08:11:01;27.00;;;5.77;;
14923;SDS011;7554;43.600;1.480;2023-03-14T08:13:29;26.20;;;4.90;;
14923;SDS011;7554;43.600;1.480;2023-03-14T08:15:57;26.10;;;4.43;;
14923;SDS011;7554;43.600;1.480;2023-03-14T08:18:24;27.23;;;4.83;;
14923;SDS011;7554;43.600;1.480;2023-03-14T08:20:51;30.70;;;4.90;;
14923;SDS011;7554;43.600;1.480;2023-03-14T08:23:19;22.90;;;4.67;;
14923;SDS011;7554;43.600;1.480;2023-03-14T08:25:49;24.93;;;4.80;;
14923;SDS011;7554;43.600;1.480;2023-03-14T08:28:17;21.37;;;4.90;;
14923;SDS011;7554;43.600;1.480;2023-03-14T08:30:44;29.27;;;5.07;;
14923;SDS011;7554;43.600;1.480;2023-03-14T08:33:12;23.30;;;4.83;;
14923;SDS011;7554;43.600;1.480;2023-03-14T08:35:39;30.83;;;5.10;;
14923;SDS011;7554;43.600;1.480;2023-03-14T08:38:06;24.23;;;5.10;;
14923;SDS011;7554;43.600;1.480;2023-03-14T08:40:34;28.30;;;4.67;;
14923;SDS011;7554;43.600;1.480;2023-03-14T08:43:03;19.27;;;4.13;;
14923;SDS011;7554;43.600;1.480;2023-03-14T08:45:30;28.93;;;4.67;;
14923;SDS011;7554;43.600;1.480;2023-03-14T08:47:57;28.10;;;4.73;;
14923;SDS011;7554;43.600;1.480;2023-03-14T08:50:25;24.47;;;4.67;;
14923;SDS011;7554;43.600;1.480;2023-03-14T08:52:52;21.83;;;4.77;;
14923;SDS011;7554;43.600;1.480;2023-03-14T08:55:19;21.60;;;4.23;;
14923;SDS011;7554;43.600;1.480;2023-03-14T08:57:47;27.17;;;4.97;;
14923;SDS011;7554;43.600;1.480;2023-03-14T09:00:17;21.60;;;4.47;;
14923;SDS011;7554;43.600;1.480;2023-03-14T09:02:45;20.93;;;3.57;;
14923;SDS011;7554;43.600;1.480;2023-03-14T09:05:12;22.43;;;4.77;;
14923;SDS011;7554;43.600;1.480;2023-03-14T09:07:40;23.73;;;4.57;;
14923;SDS011;7554;43.600;1.480;2023-03-14T09:10:08;23.37;;;4.60;;
14923;SDS011;7554;43.600;1.480;2023-03-14T09:12:36;21.57;;;4.60;;
14923;SDS011;7554;43.600;1.480;2023-03-14T09:15:04;25.77;;;4.33;;
14923;SDS011;7554;43.600;1.480;2023-03-14T09:17:33;28.70;;;4.53;;
14923;SDS011;7554;43.600;1.480;2023-03-14T09:20:02;22.47;;;4.07;;
14923;SDS011;7554;43.600;1.480;2023-03-14T09:22:32;15.20;;;2.70;;
14923;SDS011;7554;43.600;1.480;2023-03-14T09:25:00;14.20;;;1.90;;
14923;SDS011;7554;43.600;1.480;2023-03-14T09:27:28;14.87;;;2.53;;
14923;SDS011;7554;43.600;1.480;2023-03-14T09:29:55;17.67;;;2.50;;
14923;SDS011;7554;43.600;1.480;2023-03-14T09:32:22;24.90;;;3.13;;
14923;SDS011;7554;43.600;1.480;2023-03-14T09:34:51;11.97;;;2.00;;
14923;SDS011;7554;43.600;1.480;2023-03-14T09:37:19;20.00;;;2.53;;
14923;SDS011;7554;43.600;1.480;2023-03-14T09:39:46;9.03;;;2.07;;
14923;SDS011;7554;43.600;1.480;2023-03-14T09:42:14;13.87;;;2.13;;
14923;SDS011;7554;43.600;1.480;2023-03-14T09:44:47;8.67;;;1.73;;
14923;SDS011;7554;43.600;1.480;2023-03-14T09:47:19;14.63;;;1.70;;
14923;SDS011;7554;43.600;1.480;2023-03-14T09:49:49;13.83;;;1.87;;
14923;SDS011;7554;43.600;1.480;2023-03-14T09:52:19;13.83;;;2.20;;
14923;SDS011;7554;43.600;1.480;2023-03-14T09:54:50;27.93;;;3.60;;
14923;SDS011;7554;43.600;1.480;2023-03-14T09:57:19;23.70;;;2.77;;
14923;SDS011;7554;43.600;1.480;2023-03-14T09:59:50;24.20;;;3.43;;
14923;SDS011;7554;43.600;1.480;2023-03-14T10:02:19;27.90;;;3.90;;
14923;SDS011;7554;43.600;1.480;2023-03-14T10:04:48;21.67;;;3.20;;
14923;SDS011;7554;43.600;1.480;2023-03-14T10:07:19;22.47;;;3.67;;
14923;SDS011;7554;43.600;1.480;2023-03-14T10:09:51;24.27;;;3.77;;
14923;SDS011;7554;43.600;1.480;2023-03-14T10:12:19;26.30;;;4.40;;
14923;SDS011;7554;43.600;1.480;2023-03-14T10:14:56;23.83;;;3.63;;
14923;SDS011;7554;43.600;1.480;2023-03-14T10:17:28;26.03;;;3.40;;
14923;SDS011;7554;43.600;1.480;2023-03-14T10:19:55;27.13;;;3.23;;
14923;SDS011;7554;43.600;1.480;2023-03-14T10:22:26;21.60;;;4.00;;
14923;SDS011;7554;43.600;1.480;2023-03-14T10:24:57;16.83;;;2.90;;
14923;SDS011;7554;43.600;1.480;2023-03-14T10:27:28;12.97;;;2.43;;
14923;SDS011;7554;43.600;1.480;2023-03-14T10:29:57;18.63;;;3.30;;
14923;SDS011;7554;43.600;1.480;2023-03-14T10:32:31;26.60;;;3.50;;
14923;SDS011;7554;43.600;1.480;2023-03-14T10:35:05;15.47;;;3.30;;
14923;SDS011;7554;43.600;1.480;2023-03-14T10:37:36;23.77;;;3.77;;
14923;SDS011;7554;43.600;1.480;2023-03-14T10:40:18;19.07;;;3.13;;
14923;SDS011;7554;43.600;1.480;2023-03-14T10:42:47;18.17;;;3.53;;
14923;SDS011;7554;43.600;1.480;2023-03-14T10:45:27;16.00;;;2.37;;
14923;SDS011;7554;43.600;1.480;2023-03-14T10:48:05;10.73;;;2.00;;
14923;SDS011;7554;43.600;1.480;2023-03-14T10:50:47;12.10;;;1.93;;
14923;SDS011;7554;43.600;1.480;2023-03-14T10:53:17;9.33;;;1.57;;
14923;SDS011;7554;43.600;1.480;2023-03-14T10:55:45;6.90;;;1.23;;
14923;SDS011;7554;43.600;1.480;2023-03-14T10:58:19;10.73;;;2.23;;
14923;SDS011;7554;43.600;1.480;2023-03-14T11:00:50;10.03;;;2.33;;
14923;SDS011;7554;43.600;1.480;2023-03-14T11:03:24;11.30;;;2.20;;
14923;SDS011;7554;43.600;1.480;2023-03-14T11:05:56;9.27;;;2.00;;
14923;SDS011;7554;43.600;1.480;2023-03-14T11:08:29;8.87;;;1.73;;
14923;SDS011;7554;43.600;1.480;2023-03-14T11:11:07;6.53;;;1.60;;
14923;SDS011;7554;43.600;1.480;2023-03-14T11:13:43;6.47;;;1.27;;
14923;SDS011;7554;43.600;1.480;2023-03-14T11:16:19;5.80;;;1.30;;
14923;SDS011;7554;43.600;1.480;2023-03-14T11:21:57;10.27;;;1.53;;
14923;SDS011;7554;43.600;1.480;2023-03-14T11:24:43;9.97;;;1.87;;
14923;SDS011;7554;43.600;1.480;2023-03-14T11:27:34;12.97;;;2.40;;
14923;SDS011;7554;43.600;1.480;2023-03-14T11:30:14;7.07;;;1.90;;
14923;SDS011;7554;43.600;1.480;2023-03-14T11:32:46;10.43;;;1.77;;
14923;SDS011;7554;43.600;1.480;2023-03-14T11:35:18;14.73;;;2.10;;
14923;SDS011;7554;43.600;1.480;2023-03-14T11:37:52;10.00;;;2.00;;
14923;SDS011;7554;43.600;1.480;2023-03-14T11:40:23;9.43;;;1.37;;
14923;SDS011;7554;43.600;1.480;2023-03-14T11:42:55;9.83;;;1.50;;
14923;SDS011;7554;43.600;1.480;2023-03-14T11:45:28;11.87;;;2.40;;
14923;SDS011;7554;43.600;1.480;2023-03-14T11:48:06;6.80;;;1.50;;
14923;SDS011;7554;43.600;1.480;2023-03-14T11:50:41;6.97;;;1.43;;
14923;SDS011;7554;43.600;1.480;2023-03-14T11:53:11;6.53;;;1.30;;
14923;SDS011;7554;43.600;1.480;2023-03-14T11:55:44;4.93;;;1.40;;
14923;SDS011;7554;43.600;1.480;2023-03-14T11:58:13;5.93;;;1.43;;
14923;SDS011;7554;43.600;1.480;2023-03-14T12:00:43;6.50;;;1.40;;
14923;SDS011;7554;43.600;1.480;2023-03-14T12:03:14;8.83;;;1.67;;
14923;SDS011;7554;43.600;1.480;2023-03-14T12:05:50;10.67;;;1.93;;
14923;SDS011;7554;43.600;1.480;2023-03-14T12:08:28;6.30;;;1.50;;
14923;SDS011;7554;43.600;1.480;2023-03-14T12:11:08;12.23;;;1.53;;
14923;SDS011;7554;43.600;1.480;2023-03-14T12:13:40;4.57;;;1.30;;
14923;SDS011;7554;43.600;1.480;2023-03-14T12:16:19;6.10;;;1.23;;
14923;SDS011;7554;43.600;1.480;2023-03-14T12:18:57;3.53;;;0.90;;
14923;SDS011;7554;43.600;1.480;2023-03-14T12:21:45;3.60;;;1.10;;
14923;SDS011;7554;43.600;1.480;2023-03-14T12:24:17;4.00;;;0.90;;
14923;SDS011;7554;43.600;1.480;2023-03-14T12:26:51;5.73;;;1.57;;
14923;SDS011;7554;43.600;1.480;2023-03-14T12:29:20;4.87;;;1.23;;
14923;SDS011;7554;43.600;1.480;2023-03-14T12:31:48;8.37;;;1.57;;
14923;SDS011;7554;43.600;1.480;2023-03-14T12:34:29;5.63;;;0.90;;
14923;SDS011;7554;43.600;1.480;2023-03-14T12:37:12;4.87;;;1.10;;
14923;SDS011;7554;43.600;1.480;2023-03-14T12:39:47;3.87;;;1.00;;
14923;SDS011;7554;43.600;1.480;2023-03-14T12:42:35;5.10;;;1.30;;
14923;SDS011;7554;43.600;1.480;2023-03-14T12:45:14;3.47;;;1.10;;
14923;SDS011;7554;43.600;1.480;2023-03-14T12:47:51;7.23;;;1.40;;
14923;SDS011;7554;43.600;1.480;2023-03-14T12:50:29;4.83;;;1.87;;
14923;SDS011;7554;43.600;1.480;2023-03-14T12:56:25;8.03;;;1.60;;
14923;SDS011;7554;43.600;1.480;2023-03-14T12:59:05;5.90;;;1.20;;
14923;SDS011;7554;43.600;1.480;2023-03-14T13:01:55;8.90;;;1.97;;
14923;SDS011;7554;43.600;1.480;2023-03-14T13:04:26;7.13;;;1.10;;
14923;SDS011;7554;43.600;1.480;2023-03-14T13:06:56;6.47;;;1.60;;
14923;SDS011;7554;43.600;1.480;2023-03-14T13:12:23;7.13;;;1.17;;
14923;SDS011;7554;43.600;1.480;2023-03-14T13:14:57;8.60;;;1.20;;
14923;SDS011;7554;43.600;1.480;2023-03-14T13:17:30;6.57;;;1.47;;
14923;SDS011;7554;43.600;1.480;2023-03-14T13:20:00;5.70;;;1.57;;
14923;SDS011;7554;43.600;1.480;2023-03-14T13:22:32;3.20;;;1.03;;
14923;SDS011;7554;43.600;1.480;2023-03-14T13:25:04;7.37;;;1.10;;
14923;SDS011;7554;43.600;1.480;2023-03-14T13:27:34;5.90;;;1.30;;
14923;SDS011;7554;43.600;1.480;2023-03-14T13:30:14;7.53;;;1.50;;
14923;SDS011;7554;43.600;1.480;2023-03-14T13:32:45;4.57;;;1.00;;
14923;SDS011;7554;43.600;1.480;2023-03-14T13:35:14;7.77;;;1.17;;
14923;SDS011;7554;43.600;1.480;2023-03-14T13:37:46;7.07;;;1.50;;
14923;SDS011;7554;43.600;1.480;2023-03-14T13:40:19;5.83;;;1.33;;
14923;SDS011;7554;43.600;1.480;2023-03-14T13:42:58;3.50;;;1.00;;
14923;SDS011;7554;43.600;1.480;2023-03-14T13:45:29;7.87;;;1.73;;
14923;SDS011;7554;43.600;1.480;2023-03-14T13:47:57;5.13;;;1.20;;
14923;SDS011;7554;43.600;1.480;2023-03-14T13:50:24;5.00;;;0.77;;
14923;SDS011;7554;43.600;1.480;2023-03-14T13:52:55;2.87;;;0.60;;
14923;SDS011;7554;43.600;1.480;2023-03-14T13:55:23;3.70;;;0.70;;
14923;SDS011;7554;43.600;1.480;2023-03-14T13:57:51;3.23;;;0.50;;
14923;SDS011;7554;43.600;1.480;2023-03-14T14:00:21;1.97;;;0.40;;
14923;SDS011;7554;43.600;1.480;2023-03-14T14:02:53;2.30;;;0.50;;
14923;SDS011;7554;43.600;1.480;2023-03-14T14:05:22;1.00;;;0.40;;
14923;SDS011;7554;43.600;1.480;2023-03-14T14:07:53;1.27;;;0.60;;
14923;SDS011;7554;43.600;1.480;2023-03-14T14:10:21;2.13;;;0.70;;
14923;SDS011;7554;43.600;1.480;2023-03-14T14:12:49;4.07;;;0.63;;
14923;SDS011;7554;43.600;1.480;2023-03-14T14:15:23;4.23;;;1.00;;
14923;SDS011;7554;43.600;1.480;2023-03-14T14:17:56;3.83;;;1.30;;
14923;SDS011;7554;43.600;1.480;2023-03-14T14:20:26;3.37;;;1.20;;
14923;SDS011;7554;43.600;1.480;2023-03-14T14:22:59;5.20;;;1.50;;
14923;SDS011;7554;43.600;1.480;2023-03-14T14:25:29;4.20;;;0.83;;
14923;SDS011;7554;43.600;1.480;2023-03-14T14:27:56;3.13;;;0.90;;
14923;SDS011;7554;43.600;1.480;2023-03-14T14:30:26;2.57;;;0.73;;
14923;SDS011;7554;43.600;1.480;2023-03-14T14:33:09;5.23;;;0.83;;
14923;SDS011;7554;43.600;1.480;2023-03-14T14:35:48;4.13;;;0.80;;
14923;SDS011;7554;43.600;1.480;2023-03-14T14:38:18;2.30;;;0.80;;
14923;SDS011;7554;43.600;1.480;2023-03-14T14:40:48;4.47;;;0.90;;
14923;SDS011;7554;43.600;1.480;2023-03-14T14:43:18;6.17;;;1.13;;
14923;SDS011;7554;43.600;1.480;2023-03-14T14:45:49;5.10;;;0.93;;
14923;SDS011;7554;43.600;1.480;2023-03-14T14:48:20;3.70;;;0.80;;
14923;SDS011;7554;43.600;1.480;2023-03-14T14:50:50;4.07;;;1.10;;
14923;SDS011;7554;43.600;1.480;2023-03-14T14:53:27;4.27;;;1.10;;
14923;SDS011;7554;43.600;1.480;2023-03-14T14:55:56;6.27;;;1.47;;
14923;SDS011;7554;43.600;1.480;2023-03-14T14:58:26;6.23;;;1.43;;
14923;SDS011;7554;43.600;1.480;2023-03-14T15:00:56;3.50;;;1.10;;
14923;SDS011;7554;43.600;1.480;2023-03-14T15:03:30;3.90;;;1.10;;
14923;SDS011;7554;43.600;1.480;2023-03-14T15:05:58;3.50;;;1.20;;
14923;SDS011;7554;43.600;1.480;2023-03-14T15:08:26;3.90;;;1.07;;
14923;SDS011;7554;43.600;1.480;2023-03-14T15:10:54;3.83;;;0.93;;
14923;SDS011;7554;43.600;1.480;2023-03-14T15:13:22;4.00;;;1.20;;
14923;SDS011;7554;43.600;1.480;2023-03-14T15:15:49;4.93;;;1.57;;
14923;SDS011;7554;43.600;1.480;2023-03-14T15:18:21;4.60;;;1.20;;